Blue Hill, NE

7:38 PM CDT on June 25, 2017 (GMT -0500)
Spring Ranch | | Change Station

Elev 1781 ft 40.42 °N, 98.26 °W | Updated 0 second ago

Clear
Clear
70.5 °F
Feels Like 77 °F
N
11.5
Wind Variable Wind from SSW
Gusts 11.5 mph

Today
High -- | Low -- °F
--% Chance of Precip.
Yesterday
High -- | Low -- °F
Precip. -- in
Pressure 30.24 in
Visibility 10.0 miles
Clouds Clear
Heat Index 77 °F
Dew Point 49 °F
Humidity 47%
Rainfall 0.00 in
Snow Depth Not available.
6:05 AM 9:07 PM
Waxing Crescent, 5% visible
METAR KHSI 252353Z AUTO 22008KT 10SM CLR 23/07 A3026 RMK AO2 SLP238 T02330072 10244 20206 56013
Pressure 30.24 in
Visibility 10.0 miles
Clouds Clear
Heat Index 77 °F
Dew Point 49 °F
Humidity 47%
Rainfall 0.00 in
Snow Depth Not available.
6:05 AM 9:07 PM
Waxing Crescent, 5% visible
METAR KHSI 252353Z AUTO 22008KT 10SM CLR 23/07 A3026 RMK AO2 SLP238 T02330072 10244 20206 56013

Get Severe Weather Alerts

Thanks for signing up!

Be on the lookout for a verification email in your inbox.

You'll start receiving the daily forecast at 6 AM.

×

10-Day Weather Forecast

Almanac

Astronomy

Jun. 25, 2017 Rise Set
Actual Time
Civil Twilight
Nautical Twilight
Astronomical Twilight
Moon
Length of Visible Light
Length of Day
Tomorrow will be .
, % of the Moon is Illuminated

Today's Extremes

State Highs State Lows

Community

WunderPhotos

Category 6

Welcome to Category 6. This is the collective home for Weather Underground's featured writeups by Dr. Jeff Masters (right), Bob Henson (left), Chris Burt, and other regular contributors.

Nearby

Air Quality

  Air Quality AQ Index Pollutant
Not available.

Snow Depth

Station Depth Elevation

Earthquake Activity

City Distance Mag. Time & Date
Minimum magnitude displayed is 2.5.

Coastal Water Temperatures

Place Temperature

Stations

Nearby Weather Stations

Station Location Temp. Windchill Dew Point Humidity Wind Precip. Elev Updated Type
                   

Watches & Warnings

There are currently no watches in effect.